createdAt,value
2018-03-27T00:53:25.873Z,28.67
2018-03-27T01:13:58.502Z,23.75
2018-03-27T01:22:53.545Z,16.60
2018-03-27T01:25:26.538Z,18.20
2018-03-27T01:28:24.651Z,14.30
2018-03-27T01:48:53.094Z,11.60
2018-03-27T01:51:22.663Z,9.73
2018-03-27T01:53:52.406Z,10.23
2018-03-27T01:56:20.862Z,9.75
2018-03-27T02:01:22.396Z,9.50
2018-03-27T02:03:55.778Z,9.65
2018-03-27T02:09:16.788Z,10.02
2018-03-27T02:11:50.036Z,11.25
2018-03-27T02:14:23.515Z,11.98
2018-03-27T02:16:57.438Z,11.48
2018-03-27T02:19:32.589Z,10.77
2018-03-27T02:22:00.091Z,11.30
2018-03-27T02:24:30.152Z,11.25
2018-03-27T02:26:58.320Z,11.88
2018-03-27T02:29:27.239Z,11.73
2018-03-27T02:31:54.797Z,11.60
2018-03-27T02:34:24.582Z,11.93
2018-03-27T02:36:53.536Z,10.85
2018-03-27T02:39:22.124Z,12.48
2018-03-27T02:41:51.287Z,10.98
2018-03-27T02:44:22.183Z,12.13
2018-03-27T02:46:52.169Z,10.23
2018-03-27T02:49:21.046Z,11.85
2018-03-27T02:51:51.839Z,11.52
2018-03-27T02:54:20.388Z,9.88
2018-03-27T02:56:53.873Z,9.52
2018-03-27T03:02:24.026Z,10.52
2018-03-27T03:07:49.720Z,10.38
2018-03-27T03:10:19.114Z,10.10
2018-03-27T03:12:46.753Z,11.30
2018-03-27T03:15:15.256Z,12.63
2018-03-27T03:17:43.984Z,10.93
2018-03-27T03:20:11.673Z,11.65
2018-03-27T03:22:40.731Z,12.57
2018-03-27T03:25:12.045Z,12.30
2018-03-27T03:27:56.346Z,12.90
2018-03-27T03:30:43.425Z,11.70
2018-03-27T03:33:11.201Z,11.95
2018-03-27T03:35:41.133Z,13.43
2018-03-27T03:41:06.697Z,14.95
2018-03-27T03:49:24.419Z,13.48
2018-03-27T03:51:53.437Z,14.87
2018-03-27T03:54:23.726Z,16.27
2018-03-27T03:56:51.294Z,15.48
2018-03-27T03:59:19.764Z,15.95
2018-03-27T04:01:50.645Z,15.65
2018-03-27T04:04:18.620Z,14.60
2018-03-27T04:06:47.052Z,14.50
2018-03-27T04:09:14.645Z,15.48
2018-03-27T04:11:43.117Z,14.63
2018-03-27T04:17:09.618Z,15.97
2018-03-27T04:19:56.490Z,15.20
2018-03-27T04:28:24.480Z,15.32
2018-03-27T04:30:52.139Z,16.60
2018-03-27T04:33:19.685Z,16.77
2018-03-27T04:35:47.354Z,18.10
2018-03-27T04:44:17.936Z,17.30
2018-03-27T04:46:46.277Z,18.10
2018-03-27T04:49:24.404Z,19.52
2018-03-27T04:52:00.127Z,17.10
2018-03-27T05:03:24.139Z,23.48
2018-03-27T05:05:54.811Z,21.48
2018-03-27T05:24:25.089Z,18.55
2018-03-27T05:44:58.152Z,17.50
2018-03-27T05:47:25.796Z,17.70
2018-03-27T05:56:19.456Z,18.27
2018-03-27T05:58:46.956Z,17.50
2018-03-27T06:01:14.436Z,18.17
2018-03-27T06:03:54.146Z,16.87
2018-03-27T06:06:21.634Z,20.53
2018-03-27T06:08:49.137Z,17.48
2018-03-27T06:11:16.659Z,18.00
2018-03-27T06:13:44.139Z,17.60
2018-03-27T06:16:11.666Z,19.12
2018-03-27T06:18:39.917Z,20.95
2018-03-27T06:21:07.446Z,20.17
2018-03-27T06:23:34.938Z,18.98
2018-03-27T06:26:05.926Z,18.42
2018-03-27T06:28:33.472Z,18.60
2018-03-27T06:31:00.961Z,21.40
2018-03-27T06:33:29.439Z,18.42
2018-03-27T06:35:59.177Z,19.12
2018-03-27T06:38:27.476Z,19.48
2018-03-27T06:40:55.830Z,20.75
2018-03-27T06:43:23.401Z,21.70
2018-03-27T06:45:50.970Z,20.10
2018-03-27T06:48:18.636Z,19.10
2018-03-27T06:50:46.210Z,17.98
2018-03-27T06:53:34.185Z,18.27
2018-03-27T06:56:01.692Z,17.67
2018-03-27T06:58:29.949Z,16.00
2018-03-27T07:00:57.664Z,17.93
2018-03-27T07:03:26.138Z,14.23
2018-03-27T07:05:53.858Z,14.63
2018-03-27T07:08:24.739Z,14.90
2018-03-27T07:10:53.166Z,15.70
2018-03-27T07:13:20.687Z,15.90
2018-03-27T07:15:48.185Z,12.63
2018-03-27T07:18:15.677Z,16.20
2018-03-27T07:20:45.435Z,15.80
2018-03-27T07:23:13.179Z,16.73
2018-03-27T07:25:40.666Z,15.10
2018-03-27T07:28:08.161Z,17.30
2018-03-27T07:30:35.692Z,14.73
2018-03-27T07:33:03.155Z,14.73
2018-03-27T07:35:31.475Z,15.80
2018-03-27T07:37:59.000Z,18.07
2018-03-27T07:40:27.254Z,16.20
2018-03-27T07:42:54.704Z,15.60
2018-03-27T07:45:43.097Z,14.35
2018-03-27T07:48:10.607Z,14.90
2018-03-27T07:50:40.056Z,15.85
2018-03-27T07:53:07.578Z,16.15
2018-03-27T07:55:35.836Z,17.67
2018-03-27T07:58:03.366Z,19.80
2018-03-27T08:00:30.852Z,18.75
2018-03-27T08:02:58.355Z,20.67
2018-03-27T08:05:25.836Z,23.55
2018-03-27T08:07:54.103Z,23.73
2018-03-27T08:10:22.404Z,25.05
2018-03-27T08:12:50.778Z,23.23
2018-03-27T08:15:19.190Z,23.13
2018-03-27T08:17:54.320Z,24.05
2018-03-27T08:20:26.268Z,23.75
2018-03-27T08:22:55.015Z,25.85
2018-03-27T08:25:22.698Z,26.12
2018-03-27T08:27:55.675Z,26.83
2018-03-27T08:30:25.403Z,26.17
2018-03-27T08:33:00.223Z,28.23
2018-03-27T08:35:27.939Z,29.80
2018-03-27T08:37:55.905Z,26.90
2018-03-27T08:43:28.473Z,29.00
2018-03-27T08:45:57.412Z,27.73
2018-03-27T08:48:25.083Z,28.30
2018-03-27T08:50:57.301Z,28.80
2018-03-27T08:53:26.815Z,28.42
2018-03-27T08:55:55.864Z,27.52
2018-03-27T08:58:25.009Z,27.57
2018-03-27T09:00:54.589Z,28.12
2018-03-27T09:03:25.747Z,27.75
2018-03-27T09:05:53.279Z,26.37
2018-03-27T09:08:24.619Z,26.37
2018-03-27T09:10:52.208Z,27.27
2018-03-27T09:13:20.428Z,28.75
2018-03-27T09:15:47.934Z,28.12
2018-03-27T09:18:26.813Z,26.12
2018-03-27T09:20:54.648Z,27.05
2018-03-27T09:23:22.214Z,26.17
2018-03-27T09:25:49.675Z,24.15
2018-03-27T09:28:19.085Z,24.30
2018-03-27T09:30:46.561Z,23.25
2018-03-27T09:33:27.416Z,26.23
2018-03-27T09:35:54.892Z,41.37
2018-03-27T09:38:22.368Z,22.83
2018-03-27T09:40:49.828Z,22.65
2018-03-27T09:43:17.313Z,25.30
2018-03-27T09:45:44.767Z,24.80
2018-03-27T09:48:12.246Z,24.15
2018-03-27T09:50:39.744Z,23.80
2018-03-27T09:53:13.692Z,25.73
2018-03-27T09:55:41.945Z,23.58
2018-03-27T09:58:09.486Z,21.08
2018-03-27T10:00:42.748Z,20.62
2018-03-27T10:03:11.017Z,19.83
2018-03-27T10:05:38.551Z,18.67
2018-03-27T10:08:06.052Z,19.02
2018-03-27T10:13:31.661Z,18.12
2018-03-27T10:15:59.137Z,18.17
2018-03-27T10:18:31.192Z,16.92
2018-03-27T10:20:59.410Z,18.57
2018-03-27T10:23:26.892Z,16.83
2018-03-27T10:25:54.405Z,17.15
2018-03-27T10:28:25.892Z,15.85
2018-03-27T10:30:53.397Z,18.25
2018-03-27T10:33:24.735Z,17.50
2018-03-27T10:35:52.216Z,18.33
2018-03-27T10:38:19.710Z,18.33
2018-03-27T10:40:47.288Z,46.60
2018-03-27T10:43:14.824Z,13.05
2018-03-27T10:45:42.329Z,15.65
2018-03-27T10:48:09.807Z,13.90
2018-03-27T10:50:45.201Z,14.10
2018-03-27T10:53:24.092Z,13.60
2018-03-27T10:55:56.143Z,14.32
2018-03-27T10:58:27.832Z,15.77
2018-03-27T11:00:55.755Z,16.20
2018-03-27T11:03:23.372Z,16.17
2018-03-27T11:05:50.959Z,16.83
2018-03-27T11:08:18.577Z,15.50
2018-03-27T11:10:46.852Z,14.15
2018-03-27T11:13:15.142Z,14.85
2018-03-27T11:15:46.291Z,13.38
2018-03-27T11:18:15.149Z,12.73
2018-03-27T11:20:47.151Z,12.43
2018-03-27T11:23:14.677Z,24.08
2018-03-27T11:25:47.474Z,17.67
2018-03-27T11:28:15.048Z,12.73
2018-03-27T11:30:42.555Z,14.05
2018-03-27T11:33:10.205Z,12.15
2018-03-27T11:35:37.714Z,14.15
2018-03-27T11:38:14.788Z,13.23
2018-03-27T11:40:43.291Z,12.75
2018-03-27T11:43:10.760Z,19.25
2018-03-27T11:45:38.219Z,11.57
2018-03-27T11:51:09.450Z,12.50
2018-03-27T11:53:53.824Z,11.27
2018-03-27T11:56:24.620Z,11.00
2018-03-27T11:59:12.760Z,11.73
2018-03-27T12:02:05.894Z,11.57
2018-03-27T12:04:56.267Z,10.57
2018-03-27T12:13:25.351Z,11.80
2018-03-27T12:28:02.805Z,13.60
2018-03-27T12:30:41.453Z,14.17
2018-03-27T12:33:24.576Z,13.70
2018-03-27T12:35:55.317Z,13.93
2018-03-27T12:38:24.707Z,13.93
2018-03-27T12:46:41.705Z,14.13
2018-03-27T12:49:29.445Z,16.75
2018-03-27T12:51:58.142Z,13.88
2018-03-27T12:54:25.900Z,14.10
2018-03-27T12:56:54.282Z,18.50
2018-03-27T12:59:21.863Z,15.30
2018-03-27T13:01:49.376Z,17.42
2018-03-27T13:04:18.005Z,15.77
2018-03-27T13:06:55.549Z,14.50
2018-03-27T13:45:23.190Z,13.93
2018-03-27T13:51:09.022Z,12.40
2018-03-27T13:53:53.906Z,13.95
2018-03-27T13:56:32.277Z,12.85
2018-03-27T14:11:33.212Z,12.93
2018-03-27T14:14:21.365Z,13.18
2018-03-27T14:17:01.622Z,12.75
2018-03-27T14:19:32.258Z,14.00
2018-03-27T14:21:59.934Z,14.65
2018-03-27T14:24:38.505Z,13.80
2018-03-27T14:27:29.222Z,14.63
2018-03-27T14:29:59.721Z,12.93
2018-03-27T14:35:26.367Z,13.20
2018-03-27T14:37:59.187Z,12.70
2018-03-27T14:46:36.858Z,14.20
2018-03-27T14:51:53.620Z,17.97
2018-03-27T14:54:24.371Z,14.37
2018-03-27T14:56:54.663Z,14.63
2018-03-27T14:59:24.634Z,13.13
2018-03-27T15:02:31.713Z,15.10
2018-03-27T15:04:59.319Z,16.58
2018-03-27T15:07:27.155Z,16.15
2018-03-27T15:09:55.554Z,15.77
2018-03-27T15:12:23.721Z,17.02
2018-03-27T15:14:52.038Z,16.55
2018-03-27T15:17:25.577Z,15.70
2018-03-27T15:19:59.459Z,16.00
2018-03-27T15:22:26.973Z,16.87
2018-03-27T15:24:54.581Z,19.75
2018-03-27T15:27:23.057Z,18.70
2018-03-27T15:29:53.388Z,19.30
2018-03-27T15:35:23.823Z,23.38
2018-03-27T15:37:56.184Z,18.08
2018-03-27T15:53:23.691Z,19.85
2018-03-27T15:55:53.064Z,19.45
2018-03-27T15:58:21.705Z,21.15
2018-03-27T16:00:55.384Z,19.17
2018-03-27T16:03:25.335Z,20.58
2018-03-27T16:05:52.840Z,20.45
2018-03-27T16:08:20.454Z,22.90
2018-03-27T16:10:47.977Z,22.33
2018-03-27T16:13:27.138Z,21.25
2018-03-27T16:18:54.065Z,21.55
2018-03-27T16:21:26.023Z,20.92
2018-03-27T16:23:57.842Z,21.37
2018-03-27T16:29:24.707Z,21.62
2018-03-27T16:34:54.707Z,20.27
2018-03-27T16:40:21.324Z,20.30
2018-03-27T16:42:54.849Z,20.90
2018-03-27T16:50:55.677Z,20.10
2018-03-27T16:53:23.187Z,19.60
2018-03-27T16:55:55.746Z,19.70
2018-03-27T17:03:56.104Z,18.65
2018-03-27T17:06:24.594Z,18.08
2018-03-27T17:09:16.093Z,18.45
2018-03-27T17:11:55.981Z,20.00
2018-03-27T17:14:24.643Z,19.67
2018-03-27T17:17:11.793Z,19.30
2018-03-27T17:19:46.278Z,19.05
2018-03-27T17:22:58.926Z,17.77
2018-03-27T17:34:24.388Z,18.25
2018-03-27T17:36:55.795Z,16.77
2018-03-27T17:51:53.745Z,17.42
2018-03-27T17:54:26.190Z,19.08
2018-03-27T17:56:55.065Z,18.35
2018-03-27T18:19:27.078Z,19.35
2018-03-27T18:21:58.183Z,19.20
2018-03-27T18:24:25.903Z,19.83
2018-03-27T18:26:55.181Z,20.12
2018-03-27T18:29:26.609Z,20.27
2018-03-27T18:31:54.971Z,21.65
2018-03-27T18:34:22.636Z,19.83
2018-03-27T18:37:01.548Z,21.02
2018-03-27T18:39:31.716Z,19.85
2018-03-27T18:41:59.246Z,20.37
2018-03-27T18:44:28.142Z,20.08
2018-03-27T18:46:55.831Z,21.10
2018-03-27T18:49:24.153Z,20.83
2018-03-27T18:51:54.209Z,21.08
2018-03-27T18:54:24.942Z,20.95
2018-03-27T18:56:58.570Z,20.60
2018-03-27T18:59:26.132Z,22.52
2018-03-27T19:01:53.760Z,22.55
2018-03-27T19:04:33.729Z,20.10
2018-03-27T19:07:01.397Z,22.15
2018-03-27T19:09:30.617Z,22.13
2018-03-27T19:11:59.959Z,24.60
2018-03-27T19:14:28.310Z,22.35
2018-03-27T19:16:56.936Z,23.00
2018-03-27T19:19:25.744Z,23.90
2018-03-27T19:22:00.681Z,23.00
2018-03-27T19:27:25.198Z,23.33
2018-03-27T19:32:57.858Z,24.67
2018-03-27T19:35:26.338Z,22.62
2018-03-27T19:38:02.339Z,26.33
2018-03-27T19:43:26.279Z,25.13
2018-03-27T19:45:56.007Z,25.12
2018-03-27T19:48:24.600Z,24.77
2018-03-27T19:50:59.489Z,26.62
2018-03-27T19:53:30.258Z,26.23
2018-03-27T19:55:57.876Z,25.88
2018-03-27T19:58:28.559Z,26.85
2018-03-27T20:00:56.910Z,25.98
2018-03-27T20:03:25.541Z,26.52
2018-03-27T20:05:57.657Z,27.05
2018-03-27T20:08:26.071Z,28.35
2018-03-27T20:11:00.192Z,27.30
2018-03-27T20:13:27.944Z,25.60
2018-03-27T20:15:56.241Z,24.33
2018-03-27T20:18:25.151Z,27.45
2018-03-27T20:21:01.926Z,25.97
2018-03-27T20:23:29.439Z,27.63
2018-03-27T20:26:02.721Z,28.27
2018-03-27T20:28:34.446Z,26.52
2018-03-27T20:31:01.937Z,28.50
2018-03-27T20:33:29.457Z,27.73
2018-03-27T20:36:12.397Z,28.07
2018-03-27T20:38:39.904Z,29.75
2018-03-27T20:41:07.432Z,30.60
2018-03-27T20:43:35.072Z,29.37
2018-03-27T20:46:08.200Z,29.45
2018-03-27T20:48:36.812Z,28.58
2018-03-27T20:51:06.308Z,30.12
2018-03-27T20:53:33.824Z,29.10
2018-03-27T20:56:01.321Z,28.40
2018-03-27T20:58:28.792Z,28.58
2018-03-27T21:00:56.290Z,30.77
2018-03-27T21:03:25.164Z,29.17
2018-03-27T21:05:53.447Z,30.02
2018-03-27T21:08:21.006Z,27.98
2018-03-27T21:10:59.215Z,27.45
2018-03-27T21:13:26.742Z,29.05
2018-03-27T21:16:02.704Z,28.35
2018-03-27T21:18:30.925Z,28.65
2018-03-27T21:20:59.053Z,31.10
2018-03-27T21:23:31.191Z,30.37
2018-03-27T21:25:58.814Z,30.02
2018-03-27T21:28:27.811Z,29.58
2018-03-27T21:30:55.284Z,29.70
2018-03-27T21:33:27.545Z,30.10
2018-03-27T21:36:01.571Z,29.65
2018-03-27T21:38:30.137Z,30.05
2018-03-27T21:41:03.173Z,30.92
2018-03-27T21:43:30.660Z,30.35
2018-03-27T21:45:58.153Z,30.50
2018-03-27T21:48:25.644Z,29.87
2018-03-27T21:50:53.507Z,31.58
2018-03-27T21:53:27.954Z,29.58
2018-03-27T21:55:55.442Z,30.37
2018-03-27T21:58:27.122Z,30.77
2018-03-27T22:00:54.616Z,30.80
2018-03-27T22:03:22.100Z,31.90
2018-03-27T22:05:50.354Z,31.95
2018-03-27T22:08:22.014Z,33.42
2018-03-27T22:10:49.920Z,33.67
2018-03-27T22:13:29.276Z,33.58
2018-03-27T22:15:58.776Z,34.15
2018-03-27T22:18:26.258Z,33.30
2018-03-27T22:20:53.811Z,34.97
2018-03-27T22:23:21.251Z,34.17
2018-03-27T22:26:02.321Z,34.88
2018-03-27T22:28:29.812Z,33.05
2018-03-27T22:30:58.945Z,35.17
2018-03-27T22:33:28.360Z,34.37
2018-03-27T22:35:55.869Z,34.22
2018-03-27T22:38:24.116Z,36.25
2018-03-27T22:40:51.628Z,35.05
2018-03-27T22:43:19.870Z,36.53
2018-03-27T22:45:47.359Z,35.85
2018-03-27T22:48:15.099Z,35.05
2018-03-27T22:50:42.871Z,33.72
2018-03-27T22:53:10.443Z,35.42
2018-03-27T22:55:38.689Z,38.50
2018-03-27T22:58:07.029Z,35.83
2018-03-27T23:00:37.696Z,33.05
2018-03-27T23:03:05.231Z,36.00
2018-03-27T23:05:32.747Z,34.53
2018-03-27T23:08:00.234Z,33.78
2018-03-27T23:10:28.501Z,34.92
2018-03-27T23:12:58.560Z,33.75
2018-03-27T23:15:28.230Z,36.03
2018-03-27T23:17:55.730Z,34.63
2018-03-27T23:20:23.994Z,33.63
2018-03-27T23:22:51.496Z,35.25
2018-03-27T23:25:28.074Z,34.57
2018-03-27T23:27:56.339Z,34.85
2018-03-27T23:30:23.838Z,34.80
2018-03-27T23:32:59.426Z,34.63
2018-03-27T23:35:27.073Z,34.30
2018-03-27T23:37:55.501Z,33.92
2018-03-27T23:40:23.428Z,32.55
2018-03-27T23:42:51.644Z,34.78
2018-03-27T23:45:19.280Z,34.45
2018-03-27T23:47:46.764Z,34.45
2018-03-27T23:50:14.233Z,34.25
2018-03-27T23:52:43.669Z,34.07
2018-03-27T23:55:11.313Z,32.65
